首页
METAR-TAF:

METAR-TAF

机场 :

Windham Airport

Willimantic, 康乃狄克州, 美国

纬度: 41-44-31N, 经度: 072-11-01W, 海拔: 75米

当前天气观测

该预报发布于18分钟前的01:52 UTC
静风
温度 17°C
湿度 77%
气压 1011 hPa
能見度: 16.1公里
少量云层高于11000英尺

METAR: KIJD 310152Z AUTO 00000KT 10SM FEW110 17/13 A2985 RMK AO2 SLP106 T01720133

时间: 22:10 (02:10 UTC)


TAF: 丢失

超过4000个机场的气象观测和天气预报(METAR&TAF报告)。

可查询的气象台以黄色和红色小点在地图上表示。

将鼠标移到小点上方,可查看气象台名称。

然后点击查看天气观测和预报。

如需切换地图:点击带黑十字的绿色按钮放大地图;点击带横线的绿色按钮缩小地图;或者点击绿色箭头查看邻近地区的地图。


METAR-TAF: